sensor_id;sensor_type;location;lat;lon;timestamp;temperature;humidity
71668;DHT22;59504;54.806;9.640;2023-07-13T00:02:00;15.00;69.40
71668;DHT22;59504;54.806;9.640;2023-07-13T00:04:01;15.00;70.30
71668;DHT22;59504;54.806;9.640;2023-07-13T00:06:22;15.00;70.40
71668;DHT22;59504;54.806;9.640;2023-07-13T00:08:42;15.00;70.40
71668;DHT22;59504;54.806;9.640;2023-07-13T00:10:45;15.00;70.10
71668;DHT22;59504;54.806;9.640;2023-07-13T00:12:46;15.00;69.70
71668;DHT22;59504;54.806;9.640;2023-07-13T00:15:11;14.90;69.60
71668;DHT22;59504;54.806;9.640;2023-07-13T00:17:32;14.90;69.00
71668;DHT22;59504;54.806;9.640;2023-07-13T00:19:53;15.00;69.40
71668;DHT22;59504;54.806;9.640;2023-07-13T00:22:13;14.90;69.60
71668;DHT22;59504;54.806;9.640;2023-07-13T00:24:34;14.90;69.70
71668;DHT22;59504;54.806;9.640;2023-07-13T00:26:56;14.90;68.90
71668;DHT22;59504;54.806;9.640;2023-07-13T00:29:16;14.90;68.60
71668;DHT22;59504;54.806;9.640;2023-07-13T00:31:37;14.90;68.70
71668;DHT22;59504;54.806;9.640;2023-07-13T00:33:58;14.80;68.50
71668;DHT22;59504;54.806;9.640;2023-07-13T00:36:22;14.90;68.80
71668;DHT22;59504;54.806;9.640;2023-07-13T00:38:43;14.80;69.20
71668;DHT22;59504;54.806;9.640;2023-07-13T00:40:43;14.90;69.00
71668;DHT22;59504;54.806;9.640;2023-07-13T00:42:44;14.80;68.10
71668;DHT22;59504;54.806;9.640;2023-07-13T00:45:00;14.90;69.30
71668;DHT22;59504;54.806;9.640;2023-07-13T00:47:03;14.80;69.40
71668;DHT22;59504;54.806;9.640;2023-07-13T00:49:04;14.80;69.80
71668;DHT22;59504;54.806;9.640;2023-07-13T00:51:06;14.80;69.20
71668;DHT22;59504;54.806;9.640;2023-07-13T00:53:06;14.80;69.80
71668;DHT22;59504;54.806;9.640;2023-07-13T00:55:08;14.80;69.20
71668;DHT22;59504;54.806;9.640;2023-07-13T00:57:11;14.80;70.90
71668;DHT22;59504;54.806;9.640;2023-07-13T00:59:13;14.80;71.00
71668;DHT22;59504;54.806;9.640;2023-07-13T01:01:15;14.80;71.40
71668;DHT22;59504;54.806;9.640;2023-07-13T01:03:18;14.70;70.40
71668;DHT22;59504;54.806;9.640;2023-07-13T01:05:19;14.70;70.10
71668;DHT22;59504;54.806;9.640;2023-07-13T01:07:20;14.80;70.30
71668;DHT22;59504;54.806;9.640;2023-07-13T01:09:21;14.80;71.60
71668;DHT22;59504;54.806;9.640;2023-07-13T01:11:22;14.80;71.00
71668;DHT22;59504;54.806;9.640;2023-07-13T01:13:22;14.80;71.20
71668;DHT22;59504;54.806;9.640;2023-07-13T01:17:36;14.70;70.70
71668;DHT22;59504;54.806;9.640;2023-07-13T01:19:38;14.70;71.10
71668;DHT22;59504;54.806;9.640;2023-07-13T01:21:40;14.80;70.40
71668;DHT22;59504;54.806;9.640;2023-07-13T01:23:46;14.70;70.30
71668;DHT22;59504;54.806;9.640;2023-07-13T01:26:06;14.70;70.10
71668;DHT22;59504;54.806;9.640;2023-07-13T01:28:28;14.70;71.70
71668;DHT22;59504;54.806;9.640;2023-07-13T01:30:41;14.80;70.50
71668;DHT22;59504;54.806;9.640;2023-07-13T01:33:01;14.80;70.50
71668;DHT22;59504;54.806;9.640;2023-07-13T01:35:15;14.70;70.30
71668;DHT22;59504;54.806;9.640;2023-07-13T01:37:36;14.70;69.30
71668;DHT22;59504;54.806;9.640;2023-07-13T01:39:57;14.70;69.10
71668;DHT22;59504;54.806;9.640;2023-07-13T01:42:18;14.80;68.90
71668;DHT22;59504;54.806;9.640;2023-07-13T01:44:38;14.70;68.90
71668;DHT22;59504;54.806;9.640;2023-07-13T01:47:01;14.70;68.80
71668;DHT22;59504;54.806;9.640;2023-07-13T01:49:21;14.70;69.40
71668;DHT22;59504;54.806;9.640;2023-07-13T01:51:45;14.70;69.30
71668;DHT22;59504;54.806;9.640;2023-07-13T01:54:05;14.70;68.70
71668;DHT22;59504;54.806;9.640;2023-07-13T01:56:26;14.70;68.70
71668;DHT22;59504;54.806;9.640;2023-07-13T01:58:29;14.80;68.80
71668;DHT22;59504;54.806;9.640;2023-07-13T02:00:30;14.80;69.70
71668;DHT22;59504;54.806;9.640;2023-07-13T02:02:31;14.80;69.40
71668;DHT22;59504;54.806;9.640;2023-07-13T02:04:32;14.80;69.10
71668;DHT22;59504;54.806;9.640;2023-07-13T02:06:32;14.80;70.80
71668;DHT22;59504;54.806;9.640;2023-07-13T02:08:36;14.80;70.50
71668;DHT22;59504;54.806;9.640;2023-07-13T02:10:37;14.90;70.60
71668;DHT22;59504;54.806;9.640;2023-07-13T02:12:38;14.80;70.30
71668;DHT22;59504;54.806;9.640;2023-07-13T02:14:39;14.90;71.60
71668;DHT22;59504;54.806;9.640;2023-07-13T02:16:39;14.90;71.20
71668;DHT22;59504;54.806;9.640;2023-07-13T02:18:40;14.90;70.80
71668;DHT22;59504;54.806;9.640;2023-07-13T02:20:41;15.00;70.50
71668;DHT22;59504;54.806;9.640;2023-07-13T02:22:41;14.90;71.00
71668;DHT22;59504;54.806;9.640;2023-07-13T02:24:42;14.90;71.40
71668;DHT22;59504;54.806;9.640;2023-07-13T02:26:45;15.00;71.20
71668;DHT22;59504;54.806;9.640;2023-07-13T02:28:46;15.00;70.30
71668;DHT22;59504;54.806;9.640;2023-07-13T02:30:47;15.00;69.90
71668;DHT22;59504;54.806;9.640;2023-07-13T02:32:50;15.00;70.10
71668;DHT22;59504;54.806;9.640;2023-07-13T02:34:51;15.00;69.70
71668;DHT22;59504;54.806;9.640;2023-07-13T02:36:53;15.00;70.20
71668;DHT22;59504;54.806;9.640;2023-07-13T02:38:53;15.10;70.50
71668;DHT22;59504;54.806;9.640;2023-07-13T02:40:54;15.00;70.00
71668;DHT22;59504;54.806;9.640;2023-07-13T02:42:54;15.10;69.80
71668;DHT22;59504;54.806;9.640;2023-07-13T02:44:55;15.10;69.40
71668;DHT22;59504;54.806;9.640;2023-07-13T02:47:05;15.10;69.30
71668;DHT22;59504;54.806;9.640;2023-07-13T02:49:05;15.10;69.10
71668;DHT22;59504;54.806;9.640;2023-07-13T02:51:06;15.10;69.10
71668;DHT22;59504;54.806;9.640;2023-07-13T02:53:10;15.20;69.00
71668;DHT22;59504;54.806;9.640;2023-07-13T02:55:11;15.20;68.90
71668;DHT22;59504;54.806;9.640;2023-07-13T02:57:12;15.20;70.00
71668;DHT22;59504;54.806;9.640;2023-07-13T02:59:12;15.20;71.10
71668;DHT22;59504;54.806;9.640;2023-07-13T03:01:13;15.20;71.10
71668;DHT22;59504;54.806;9.640;2023-07-13T03:03:19;15.20;71.80
71668;DHT22;59504;54.806;9.640;2023-07-13T03:05:19;15.20;71.50
71668;DHT22;59504;54.806;9.640;2023-07-13T03:07:20;15.20;70.90
71668;DHT22;59504;54.806;9.640;2023-07-13T03:09:20;15.20;71.20
71668;DHT22;59504;54.806;9.640;2023-07-13T03:11:21;15.20;71.40
71668;DHT22;59504;54.806;9.640;2023-07-13T03:13:27;15.20;70.80
71668;DHT22;59504;54.806;9.640;2023-07-13T03:15:28;15.20;70.40
71668;DHT22;59504;54.806;9.640;2023-07-13T03:17:29;15.20;70.70
71668;DHT22;59504;54.806;9.640;2023-07-13T03:19:30;15.20;70.40
71668;DHT22;59504;54.806;9.640;2023-07-13T03:21:30;15.20;70.80
71668;DHT22;59504;54.806;9.640;2023-07-13T03:23:31;15.10;70.90
71668;DHT22;59504;54.806;9.640;2023-07-13T03:25:32;15.20;70.80
71668;DHT22;59504;54.806;9.640;2023-07-13T03:27:33;15.20;71.20
71668;DHT22;59504;54.806;9.640;2023-07-13T03:29:33;15.10;71.10
71668;DHT22;59504;54.806;9.640;2023-07-13T03:31:35;15.10;71.30
71668;DHT22;59504;54.806;9.640;2023-07-13T03:33:35;15.20;71.30
71668;DHT22;59504;54.806;9.640;2023-07-13T03:35:39;15.10;71.10
71668;DHT22;59504;54.806;9.640;2023-07-13T03:37:40;15.20;71.40
71668;DHT22;59504;54.806;9.640;2023-07-13T03:39:42;15.10;71.30
71668;DHT22;59504;54.806;9.640;2023-07-13T03:41:43;15.10;71.20
71668;DHT22;59504;54.806;9.640;2023-07-13T03:43:44;15.20;71.40
71668;DHT22;59504;54.806;9.640;2023-07-13T03:45:44;15.20;71.40
71668;DHT22;59504;54.806;9.640;2023-07-13T03:47:45;15.20;71.40
71668;DHT22;59504;54.806;9.640;2023-07-13T03:50:00;15.30;71.70
71668;DHT22;59504;54.806;9.640;2023-07-13T03:52:00;15.20;72.30
71668;DHT22;59504;54.806;9.640;2023-07-13T03:54:02;15.20;71.50
71668;DHT22;59504;54.806;9.640;2023-07-13T03:56:23;15.30;71.40
71668;DHT22;59504;54.806;9.640;2023-07-13T03:58:45;15.20;71.30
71668;DHT22;59504;54.806;9.640;2023-07-13T04:01:06;15.30;71.30
71668;DHT22;59504;54.806;9.640;2023-07-13T04:03:27;15.30;71.30
71668;DHT22;59504;54.806;9.640;2023-07-13T04:05:55;15.30;71.30
71668;DHT22;59504;54.806;9.640;2023-07-13T04:08:19;15.30;71.40
71668;DHT22;59504;54.806;9.640;2023-07-13T04:10:40;15.30;71.80
71668;DHT22;59504;54.806;9.640;2023-07-13T04:13:04;15.30;71.70
71668;DHT22;59504;54.806;9.640;2023-07-13T04:15:26;15.30;70.70
71668;DHT22;59504;54.806;9.640;2023-07-13T04:17:50;15.40;70.30
71668;DHT22;59504;54.806;9.640;2023-07-13T04:19:50;15.30;70.20
71668;DHT22;59504;54.806;9.640;2023-07-13T04:21:51;15.30;70.50
71668;DHT22;59504;54.806;9.640;2023-07-13T04:23:52;15.30;70.90
71668;DHT22;59504;54.806;9.640;2023-07-13T04:25:53;15.40;71.30
71668;DHT22;59504;54.806;9.640;2023-07-13T04:27:54;15.30;71.40
71668;DHT22;59504;54.806;9.640;2023-07-13T04:29:55;15.30;71.30
71668;DHT22;59504;54.806;9.640;2023-07-13T04:31:55;15.30;70.60
71668;DHT22;59504;54.806;9.640;2023-07-13T04:33:56;15.30;70.80
71668;DHT22;59504;54.806;9.640;2023-07-13T04:35:57;15.30;71.90
71668;DHT22;59504;54.806;9.640;2023-07-13T04:37:58;15.30;71.50
71668;DHT22;59504;54.806;9.640;2023-07-13T04:40:02;15.30;72.20
71668;DHT22;59504;54.806;9.640;2023-07-13T04:42:04;15.20;72.50
71668;DHT22;59504;54.806;9.640;2023-07-13T04:44:04;15.20;72.50
71668;DHT22;59504;54.806;9.640;2023-07-13T04:46:06;15.20;72.00
71668;DHT22;59504;54.806;9.640;2023-07-13T04:48:06;15.10;72.00
71668;DHT22;59504;54.806;9.640;2023-07-13T04:50:27;15.10;71.70
71668;DHT22;59504;54.806;9.640;2023-07-13T04:52:48;15.10;72.00
71668;DHT22;59504;54.806;9.640;2023-07-13T04:55:10;15.10;71.50
71668;DHT22;59504;54.806;9.640;2023-07-13T04:57:14;15.10;71.10
71668;DHT22;59504;54.806;9.640;2023-07-13T04:59:34;15.00;71.30
71668;DHT22;59504;54.806;9.640;2023-07-13T05:01:55;15.00;71.10
71668;DHT22;59504;54.806;9.640;2023-07-13T05:04:15;14.90;71.70
71668;DHT22;59504;54.806;9.640;2023-07-13T05:06:36;14.90;71.40
71668;DHT22;59504;54.806;9.640;2023-07-13T05:08:56;14.90;71.20
71668;DHT22;59504;54.806;9.640;2023-07-13T05:11:17;14.90;71.20
71668;DHT22;59504;54.806;9.640;2023-07-13T05:13:38;14.90;71.70
71668;DHT22;59504;54.806;9.640;2023-07-13T05:16:00;14.90;71.40
71668;DHT22;59504;54.806;9.640;2023-07-13T05:18:01;14.80;71.00
71668;DHT22;59504;54.806;9.640;2023-07-13T05:20:02;14.90;70.90
71668;DHT22;59504;54.806;9.640;2023-07-13T05:22:02;14.80;70.60
71668;DHT22;59504;54.806;9.640;2023-07-13T05:24:04;14.80;70.60
71668;DHT22;59504;54.806;9.640;2023-07-13T05:26:04;14.80;70.40
71668;DHT22;59504;54.806;9.640;2023-07-13T05:28:05;14.70;70.30
71668;DHT22;59504;54.806;9.640;2023-07-13T05:30:06;14.70;70.10
71668;DHT22;59504;54.806;9.640;2023-07-13T05:32:07;14.70;70.20
71668;DHT22;59504;54.806;9.640;2023-07-13T05:34:08;14.70;70.30
71668;DHT22;59504;54.806;9.640;2023-07-13T05:36:09;14.80;70.30
71668;DHT22;59504;54.806;9.640;2023-07-13T05:38:28;14.80;70.40
71668;DHT22;59504;54.806;9.640;2023-07-13T05:40:29;14.80;70.90
71668;DHT22;59504;54.806;9.640;2023-07-13T05:42:29;14.70;71.30
71668;DHT22;59504;54.806;9.640;2023-07-13T05:44:34;14.70;71.80
71668;DHT22;59504;54.806;9.640;2023-07-13T05:46:34;14.80;71.70
71668;DHT22;59504;54.806;9.640;2023-07-13T05:48:35;14.70;71.80
71668;DHT22;59504;54.806;9.640;2023-07-13T05:50:35;14.70;71.70
71668;DHT22;59504;54.806;9.640;2023-07-13T05:52:40;14.80;72.10
71668;DHT22;59504;54.806;9.640;2023-07-13T05:54:43;14.80;72.10
71668;DHT22;59504;54.806;9.640;2023-07-13T05:56:45;14.80;72.20
71668;DHT22;59504;54.806;9.640;2023-07-13T05:59:06;14.70;71.80
71668;DHT22;59504;54.806;9.640;2023-07-13T06:01:29;14.80;72.10
71668;DHT22;59504;54.806;9.640;2023-07-13T06:03:50;14.70;72.00
71668;DHT22;59504;54.806;9.640;2023-07-13T06:06:10;14.80;72.20
71668;DHT22;59504;54.806;9.640;2023-07-13T06:08:32;14.80;72.20
71668;DHT22;59504;54.806;9.640;2023-07-13T06:10:33;14.80;72.30
71668;DHT22;59504;54.806;9.640;2023-07-13T06:12:34;14.80;72.70
71668;DHT22;59504;54.806;9.640;2023-07-13T06:14:37;15.00;73.10
71668;DHT22;59504;54.806;9.640;2023-07-13T06:16:39;14.90;72.80
71668;DHT22;59504;54.806;9.640;2023-07-13T06:18:40;14.90;72.80
71668;DHT22;59504;54.806;9.640;2023-07-13T06:20:41;14.90;72.80
71668;DHT22;59504;54.806;9.640;2023-07-13T06:22:42;15.00;72.80
71668;DHT22;59504;54.806;9.640;2023-07-13T06:24:42;15.00;72.90
71668;DHT22;59504;54.806;9.640;2023-07-13T06:26:43;15.10;73.30
71668;DHT22;59504;54.806;9.640;2023-07-13T06:28:44;15.00;72.80
71668;DHT22;59504;54.806;9.640;2023-07-13T06:31:06;15.20;73.00
71668;DHT22;59504;54.806;9.640;2023-07-13T06:33:27;15.10;72.90
71668;DHT22;59504;54.806;9.640;2023-07-13T06:35:47;15.20;73.00
71668;DHT22;59504;54.806;9.640;2023-07-13T06:38:08;15.20;73.00
71668;DHT22;59504;54.806;9.640;2023-07-13T06:40:28;15.20;73.00
71668;DHT22;59504;54.806;9.640;2023-07-13T06:42:50;15.20;73.00
71668;DHT22;59504;54.806;9.640;2023-07-13T06:45:11;15.30;73.30
71668;DHT22;59504;54.806;9.640;2023-07-13T06:47:33;15.30;73.40
71668;DHT22;59504;54.806;9.640;2023-07-13T06:49:54;15.30;73.40
71668;DHT22;59504;54.806;9.640;2023-07-13T06:52:14;15.40;73.50
71668;DHT22;59504;54.806;9.640;2023-07-13T06:54:35;15.40;73.30
71668;DHT22;59504;54.806;9.640;2023-07-13T06:56:56;15.50;73.40
71668;DHT22;59504;54.806;9.640;2023-07-13T06:59:16;15.50;73.30
71668;DHT22;59504;54.806;9.640;2023-07-13T07:01:37;15.50;73.10
71668;DHT22;59504;54.806;9.640;2023-07-13T07:03:37;15.50;73.10
71668;DHT22;59504;54.806;9.640;2023-07-13T07:05:41;15.60;73.30
71668;DHT22;59504;54.806;9.640;2023-07-13T07:07:42;15.60;73.20
71668;DHT22;59504;54.806;9.640;2023-07-13T07:09:42;15.70;73.30
71668;DHT22;59504;54.806;9.640;2023-07-13T07:11:45;15.60;73.20
71668;DHT22;59504;54.806;9.640;2023-07-13T07:13:46;15.60;73.30
71668;DHT22;59504;54.806;9.640;2023-07-13T07:15:47;15.60;73.20
71668;DHT22;59504;54.806;9.640;2023-07-13T07:17:49;15.70;73.10
71668;DHT22;59504;54.806;9.640;2023-07-13T07:26:06;15.70;72.30
71668;DHT22;59504;54.806;9.640;2023-07-13T07:28:29;15.80;72.40
71668;DHT22;59504;54.806;9.640;2023-07-13T07:30:53;15.90;72.60
71668;DHT22;59504;54.806;9.640;2023-07-13T07:33:14;15.80;72.60
71668;DHT22;59504;54.806;9.640;2023-07-13T08:47:20;17.30;77.20
71668;DHT22;59504;54.806;9.640;2023-07-13T08:49:27;17.50;78.20
71668;DHT22;59504;54.806;9.640;2023-07-13T08:51:44;17.50;79.70
71668;DHT22;59504;54.806;9.640;2023-07-13T08:54:49;17.60;79.20
71668;DHT22;59504;54.806;9.640;2023-07-13T08:56:43;17.80;78.20
71668;DHT22;59504;54.806;9.640;2023-07-13T08:59:15;17.80;79.00
71668;DHT22;59504;54.806;9.640;2023-07-13T09:05:55;18.30;78.50
71668;DHT22;59504;54.806;9.640;2023-07-13T09:08:36;18.30;76.00
71668;DHT22;59504;54.806;9.640;2023-07-13T09:16:18;18.40;75.00
71668;DHT22;59504;54.806;9.640;2023-07-13T09:21:29;18.50;74.00
71668;DHT22;59504;54.806;9.640;2023-07-13T09:26:57;18.40;73.70
71668;DHT22;59504;54.806;9.640;2023-07-13T09:34:28;18.60;74.80
71668;DHT22;59504;54.806;9.640;2023-07-13T09:36:32;18.60;74.00
71668;DHT22;59504;54.806;9.640;2023-07-13T09:38:33;18.60;74.40
71668;DHT22;59504;54.806;9.640;2023-07-13T09:40:40;18.70;73.80
71668;DHT22;59504;54.806;9.640;2023-07-13T09:42:43;18.80;73.70
71668;DHT22;59504;54.806;9.640;2023-07-13T09:44:51;18.80;73.90
71668;DHT22;59504;54.806;9.640;2023-07-13T09:46:53;18.80;73.20
71668;DHT22;59504;54.806;9.640;2023-07-13T09:49:14;18.80;73.90
71668;DHT22;59504;54.806;9.640;2023-07-13T09:51:34;19.00;73.90
71668;DHT22;59504;54.806;9.640;2023-07-13T09:53:55;19.00;73.00
71668;DHT22;59504;54.806;9.640;2023-07-13T09:56:21;19.00;72.20
71668;DHT22;59504;54.806;9.640;2023-07-13T09:58:41;19.10;70.90
71668;DHT22;59504;54.806;9.640;2023-07-13T10:01:03;19.10;69.50
71668;DHT22;59504;54.806;9.640;2023-07-13T10:03:26;19.10;68.20
71668;DHT22;59504;54.806;9.640;2023-07-13T10:05:48;19.10;67.20
71668;DHT22;59504;54.806;9.640;2023-07-13T10:08:17;18.90;65.70
71668;DHT22;59504;54.806;9.640;2023-07-13T10:10:38;18.80;65.30
71668;DHT22;59504;54.806;9.640;2023-07-13T10:12:59;18.60;65.20
71668;DHT22;59504;54.806;9.640;2023-07-13T10:15:20;18.50;65.30
71668;DHT22;59504;54.806;9.640;2023-07-13T10:17:41;18.40;65.10
71668;DHT22;59504;54.806;9.640;2023-07-13T10:19:44;18.30;65.20
71668;DHT22;59504;54.806;9.640;2023-07-13T10:21:57;18.20;65.70
71668;DHT22;59504;54.806;9.640;2023-07-13T10:26:46;18.00;66.70
71668;DHT22;59504;54.806;9.640;2023-07-13T10:29:09;17.90;67.80
71668;DHT22;59504;54.806;9.640;2023-07-13T10:31:12;18.00;68.70
71668;DHT22;59504;54.806;9.640;2023-07-13T10:33:33;17.90;69.80
71668;DHT22;59504;54.806;9.640;2023-07-13T10:36:07;18.00;70.40
71668;DHT22;59504;54.806;9.640;2023-07-13T10:38:32;18.00;70.70
71668;DHT22;59504;54.806;9.640;2023-07-13T10:43:45;18.10;71.70
71668;DHT22;59504;54.806;9.640;2023-07-13T10:46:07;18.20;72.00
71668;DHT22;59504;54.806;9.640;2023-07-13T10:48:09;18.20;71.70
71668;DHT22;59504;54.806;9.640;2023-07-13T10:50:32;18.30;71.80
71668;DHT22;59504;54.806;9.640;2023-07-13T10:52:50;18.30;71.30
71668;DHT22;59504;54.806;9.640;2023-07-13T10:54:51;18.40;71.10
71668;DHT22;59504;54.806;9.640;2023-07-13T10:59:26;18.50;71.60
71668;DHT22;59504;54.806;9.640;2023-07-13T11:01:28;18.50;72.20
71668;DHT22;59504;54.806;9.640;2023-07-13T11:06:03;18.60;71.90
71668;DHT22;59504;54.806;9.640;2023-07-13T11:10:46;18.80;72.00
71668;DHT22;59504;54.806;9.640;2023-07-13T11:13:27;18.90;72.40
71668;DHT22;59504;54.806;9.640;2023-07-13T11:21:26;19.30;72.10
71668;DHT22;59504;54.806;9.640;2023-07-13T11:23:52;19.50;70.70
71668;DHT22;59504;54.806;9.640;2023-07-13T11:28:53;19.70;70.30
71668;DHT22;59504;54.806;9.640;2023-07-13T11:35:21;20.00;66.70
71668;DHT22;59504;54.806;9.640;2023-07-13T11:37:24;20.10;66.70
71668;DHT22;59504;54.806;9.640;2023-07-13T11:39:47;20.10;64.20
71668;DHT22;59504;54.806;9.640;2023-07-13T11:42:10;20.20;63.00
71668;DHT22;59504;54.806;9.640;2023-07-13T11:44:33;20.30;63.30
71668;DHT22;59504;54.806;9.640;2023-07-13T11:46:55;20.50;63.30
71668;DHT22;59504;54.806;9.640;2023-07-13T11:49:20;20.40;62.00
71668;DHT22;59504;54.806;9.640;2023-07-13T11:51:41;20.50;61.70
71668;DHT22;59504;54.806;9.640;2023-07-13T11:53:44;20.50;61.00
71668;DHT22;59504;54.806;9.640;2023-07-13T12:21:24;20.40;58.70
71668;DHT22;59504;54.806;9.640;2023-07-13T12:23:48;20.30;58.50
71668;DHT22;59504;54.806;9.640;2023-07-13T12:31:35;19.80;58.70
71668;DHT22;59504;54.806;9.640;2023-07-13T12:45:20;19.50;61.60
71668;DHT22;59504;54.806;9.640;2023-07-13T12:47:42;19.50;61.70
71668;DHT22;59504;54.806;9.640;2023-07-13T12:53:02;19.30;61.90
71668;DHT22;59504;54.806;9.640;2023-07-13T12:55:24;19.30;62.00
71668;DHT22;59504;54.806;9.640;2023-07-13T12:57:47;19.20;61.90
71668;DHT22;59504;54.806;9.640;2023-07-13T13:02:56;19.00;62.70
71668;DHT22;59504;54.806;9.640;2023-07-13T13:04:58;18.90;62.50
71668;DHT22;59504;54.806;9.640;2023-07-13T13:09:56;18.70;62.40
71668;DHT22;59504;54.806;9.640;2023-07-13T13:12:18;18.50;62.80
71668;DHT22;59504;54.806;9.640;2023-07-13T13:14:39;18.40;62.70
71668;DHT22;59504;54.806;9.640;2023-07-13T13:17:00;18.30;62.80
71668;DHT22;59504;54.806;9.640;2023-07-13T13:19:36;18.20;63.00
71668;DHT22;59504;54.806;9.640;2023-07-13T13:21:57;18.10;62.90
71668;DHT22;59504;54.806;9.640;2023-07-13T13:26:30;17.90;64.50
71668;DHT22;59504;54.806;9.640;2023-07-13T13:28:58;17.90;64.00
71668;DHT22;59504;54.806;9.640;2023-07-13T13:33:37;17.90;65.50
71668;DHT22;59504;54.806;9.640;2023-07-13T13:36:31;17.90;65.90
71668;DHT22;59504;54.806;9.640;2023-07-13T13:39:02;17.90;66.50
71668;DHT22;59504;54.806;9.640;2023-07-13T13:43:24;17.90;66.50
71668;DHT22;59504;54.806;9.640;2023-07-13T13:45:31;17.80;66.10
71668;DHT22;59504;54.806;9.640;2023-07-13T13:47:52;17.80;66.50
71668;DHT22;59504;54.806;9.640;2023-07-13T13:50:13;17.80;66.60
71668;DHT22;59504;54.806;9.640;2023-07-13T13:52:35;17.80;67.00
71668;DHT22;59504;54.806;9.640;2023-07-13T13:54:36;17.70;67.40
71668;DHT22;59504;54.806;9.640;2023-07-13T13:57:03;17.70;67.20
71668;DHT22;59504;54.806;9.640;2023-07-13T13:59:28;17.70;67.00
71668;DHT22;59504;54.806;9.640;2023-07-13T14:01:48;17.70;67.70
71668;DHT22;59504;54.806;9.640;2023-07-13T14:04:13;17.70;67.50
71668;DHT22;59504;54.806;9.640;2023-07-13T14:06:34;17.70;67.50
71668;DHT22;59504;54.806;9.640;2023-07-13T14:08:38;17.70;67.70
71668;DHT22;59504;54.806;9.640;2023-07-13T14:10:43;17.70;67.70
71668;DHT22;59504;54.806;9.640;2023-07-13T14:12:48;17.80;68.00
71668;DHT22;59504;54.806;9.640;2023-07-13T14:14:59;17.80;67.90
71668;DHT22;59504;54.806;9.640;2023-07-13T14:17:11;17.90;68.30
71668;DHT22;59504;54.806;9.640;2023-07-13T14:19:17;18.00;68.90
71668;DHT22;59504;54.806;9.640;2023-07-13T14:21:20;18.00;68.90
71668;DHT22;59504;54.806;9.640;2023-07-13T14:23:44;18.00;68.70
71668;DHT22;59504;54.806;9.640;2023-07-13T14:26:12;18.00;69.10
71668;DHT22;59504;54.806;9.640;2023-07-13T14:28:33;18.10;68.70
71668;DHT22;59504;54.806;9.640;2023-07-13T14:30:54;18.20;69.00
71668;DHT22;59504;54.806;9.640;2023-07-13T14:33:15;18.20;68.90
71668;DHT22;59504;54.806;9.640;2023-07-13T14:35:35;18.20;69.30
71668;DHT22;59504;54.806;9.640;2023-07-13T14:37:58;18.30;69.30
71668;DHT22;59504;54.806;9.640;2023-07-13T14:40:21;18.40;69.40
71668;DHT22;59504;54.806;9.640;2023-07-13T14:42:45;18.40;69.20
71668;DHT22;59504;54.806;9.640;2023-07-13T14:45:05;18.50;69.10
71668;DHT22;59504;54.806;9.640;2023-07-13T14:47:06;18.60;68.70
71668;DHT22;59504;54.806;9.640;2023-07-13T14:53:53;18.70;68.20
71668;DHT22;59504;54.806;9.640;2023-07-13T14:58:55;18.80;67.80
71668;DHT22;59504;54.806;9.640;2023-07-13T15:01:37;18.80;67.70
71668;DHT22;59504;54.806;9.640;2023-07-13T15:03:59;18.90;67.60
71668;DHT22;59504;54.806;9.640;2023-07-13T15:06:19;18.90;67.20
71668;DHT22;59504;54.806;9.640;2023-07-13T15:11:55;18.90;67.00
71668;DHT22;59504;54.806;9.640;2023-07-13T15:16:44;19.00;66.10
71668;DHT22;59504;54.806;9.640;2023-07-13T15:18:46;19.10;66.30
71668;DHT22;59504;54.806;9.640;2023-07-13T15:21:08;19.00;65.40
71668;DHT22;59504;54.806;9.640;2023-07-13T15:23:33;19.10;65.70
71668;DHT22;59504;54.806;9.640;2023-07-13T15:25:54;19.10;65.60
71668;DHT22;59504;54.806;9.640;2023-07-13T15:28:14;19.20;65.50
71668;DHT22;59504;54.806;9.640;2023-07-13T15:33:22;19.30;65.10
71668;DHT22;59504;54.806;9.640;2023-07-13T15:35:25;19.30;65.00
71668;DHT22;59504;54.806;9.640;2023-07-13T15:37:44;19.40;64.70
71668;DHT22;59504;54.806;9.640;2023-07-13T15:40:08;19.40;64.90
71668;DHT22;59504;54.806;9.640;2023-07-13T15:48:21;19.50;64.10
71668;DHT22;59504;54.806;9.640;2023-07-13T15:58:37;19.70;62.40
71668;DHT22;59504;54.806;9.640;2023-07-13T16:03:57;19.80;61.40
71668;DHT22;59504;54.806;9.640;2023-07-13T16:05:58;19.80;60.70
71668;DHT22;59504;54.806;9.640;2023-07-13T16:07:59;19.80;60.30
71668;DHT22;59504;54.806;9.640;2023-07-13T16:10:01;19.80;60.60
71668;DHT22;59504;54.806;9.640;2023-07-13T16:12:01;19.80;60.80
71668;DHT22;59504;54.806;9.640;2023-07-13T16:14:02;19.80;60.20
71668;DHT22;59504;54.806;9.640;2023-07-13T16:19:13;19.80;59.60
71668;DHT22;59504;54.806;9.640;2023-07-13T16:27:24;19.90;59.70
71668;DHT22;59504;54.806;9.640;2023-07-13T16:35:39;19.90;59.70
71668;DHT22;59504;54.806;9.640;2023-07-13T16:38:03;19.90;59.50
71668;DHT22;59504;54.806;9.640;2023-07-13T16:40:28;19.90;59.50
71668;DHT22;59504;54.806;9.640;2023-07-13T16:48:35;19.80;59.20
71668;DHT22;59504;54.806;9.640;2023-07-13T16:53:52;19.80;59.40
71668;DHT22;59504;54.806;9.640;2023-07-13T16:56:14;19.80;59.40
71668;DHT22;59504;54.806;9.640;2023-07-13T17:04:56;19.70;59.00
71668;DHT22;59504;54.806;9.640;2023-07-13T17:06:57;19.60;59.40
71668;DHT22;59504;54.806;9.640;2023-07-13T17:20:59;19.30;60.50
71668;DHT22;59504;54.806;9.640;2023-07-13T17:23:00;19.20;61.00
71668;DHT22;59504;54.806;9.640;2023-07-13T17:25:00;19.20;61.10
71668;DHT22;59504;54.806;9.640;2023-07-13T17:27:33;19.10;61.30
71668;DHT22;59504;54.806;9.640;2023-07-13T17:29:53;19.20;61.60
71668;DHT22;59504;54.806;9.640;2023-07-13T17:32:15;19.10;62.00
71668;DHT22;59504;54.806;9.640;2023-07-13T17:34:55;19.10;62.60
71668;DHT22;59504;54.806;9.640;2023-07-13T17:37:17;19.10;63.10
71668;DHT22;59504;54.806;9.640;2023-07-13T17:39:40;19.20;63.30
71668;DHT22;59504;54.806;9.640;2023-07-13T17:42:20;19.20;63.10
71668;DHT22;59504;54.806;9.640;2023-07-13T17:44:30;19.30;63.60
71668;DHT22;59504;54.806;9.640;2023-07-13T17:46:34;19.30;63.50
71668;DHT22;59504;54.806;9.640;2023-07-13T17:48:55;19.30;63.40
71668;DHT22;59504;54.806;9.640;2023-07-13T17:51:18;19.40;63.20
71668;DHT22;59504;54.806;9.640;2023-07-13T17:53:45;19.30;62.90
71668;DHT22;59504;54.806;9.640;2023-07-13T17:56:13;19.30;63.00
71668;DHT22;59504;54.806;9.640;2023-07-13T17:58:39;19.30;62.80
71668;DHT22;59504;54.806;9.640;2023-07-13T18:01:18;19.30;62.70
71668;DHT22;59504;54.806;9.640;2023-07-13T18:10:57;19.40;63.40
71668;DHT22;59504;54.806;9.640;2023-07-13T18:12:58;19.50;63.60
71668;DHT22;59504;54.806;9.640;2023-07-13T18:15:11;19.60;63.60
71668;DHT22;59504;54.806;9.640;2023-07-13T18:22:52;19.90;62.90
71668;DHT22;59504;54.806;9.640;2023-07-13T18:25:17;20.00;62.30
71668;DHT22;59504;54.806;9.640;2023-07-13T18:27:38;20.10;62.30
71668;DHT22;59504;54.806;9.640;2023-07-13T18:30:02;20.20;61.90